Time;durP1;ratioP1;P1;durP2;ratioP2;P2;SDS_P1;SDS_P2;PMS_P1;PMS_P2;Temp;Humidity;BMP_temperature;BMP_pressure;BME280_temperature;BME280_humidity;BME280_pressure;Samples;Min_cycle;Max_cycle;Signal;HPM_P1;HPM_P2
2024/03/22 00:02:16;;;;;;;14.70;10.90;;;;;;;8.90;85.71;101239.63;103503;1316;25976;-62
2024/03/22 00:04:41;;;;;;;13.10;11.70;;;;;;;8.89;85.74;101238.94;103581;1319;22564;-62
2024/03/22 00:07:06;;;;;;;15.90;13.40;;;;;;;8.88;85.51;101232.75;103552;1319;22613;-62
2024/03/22 00:09:32;;;;;;;13.60;12.20;;;;;;;8.87;85.80;101228.80;103414;1298;23391;-61
2024/03/22 00:11:57;;;;;;;16.30;14.00;;;;;;;8.85;85.98;101220.37;103587;1319;22689;-61
2024/03/22 00:14:23;;;;;;;14.90;12.80;;;;;;;8.82;86.56;101220.40;103437;1319;22748;-62
2024/03/22 00:16:48;;;;;;;18.90;13.30;;;;;;;8.78;86.15;101213.86;103478;1319;25514;-62
2024/03/22 00:19:14;;;;;;;16.60;14.50;;;;;;;8.72;86.42;101200.95;103365;1319;24290;-62
2024/03/22 00:21:39;;;;;;;15.60;13.80;;;;;;;8.67;85.83;101195.62;103467;1300;22570;-61
2024/03/22 00:24:05;;;;;;;14.60;13.10;;;;;;;8.63;85.66;101195.97;103076;1319;25543;-63
2024/03/22 00:26:30;;;;;;;16.70;13.90;;;;;;;8.59;85.85;101196.13;102916;1319;22866;-64
2024/03/22 00:28:58;;;;;;;16.60;14.30;;;;;;;8.56;86.24;101186.33;102783;1319;22571;-64
2024/03/22 00:31:23;;;;;;;15.90;13.80;;;;;;;8.51;85.82;101187.02;102904;1319;22697;-65
2024/03/22 00:33:49;;;;;;;17.80;14.80;;;;;;;8.49;85.76;101190.45;103074;1312;24253;-64
2024/03/22 00:36:14;;;;;;;16.80;13.40;;;;;;;8.45;85.75;101193.36;102926;1313;22581;-64
2024/03/22 00:38:39;;;;;;;21.40;15.80;;;;;;;8.41;87.76;101198.50;102733;1314;25340;-64
2024/03/22 00:41:06;;;;;;;18.30;16.10;;;;;;;8.37;86.66;101199.86;102939;1302;26184;-63
2024/03/22 00:43:31;;;;;;;18.40;15.20;;;;;;;8.32;87.19;101198.64;102944;1313;22574;-63
2024/03/22 00:45:58;;;;;;;19.30;16.30;;;;;;;8.27;86.77;101199.32;103054;1319;22581;-64
2024/03/22 00:48:24;;;;;;;20.30;16.20;;;;;;;8.22;87.46;101203.27;102898;1316;22694;-64
2024/03/22 00:50:49;;;;;;;19.10;16.30;;;;;;;8.17;87.04;101205.81;102926;1300;24382;-64
2024/03/22 00:53:14;;;;;;;22.50;17.20;;;;;;;8.11;86.41;101206.31;102989;1319;22577;-63
2024/03/22 00:55:40;;;;;;;20.10;17.50;;;;;;;8.08;86.20;101208.70;102762;1319;22567;-63
2024/03/22 00:58:05;;;;;;;19.60;17.10;;;;;;;8.05;86.02;101205.77;102792;1319;24827;-64
2024/03/22 01:00:31;;;;;;;18.80;15.60;;;;;;;8.02;86.91;101205.92;102815;1313;22615;-64
2024/03/22 01:02:56;;;;;;;21.40;17.00;;;;;;;7.98;88.24;101211.92;102998;1313;26525;-65
2024/03/22 01:05:21;;;;;;;22.30;17.80;;;;;;;7.94;86.52;101212.42;103042;1313;25413;-64
2024/03/22 01:07:47;;;;;;;18.10;15.20;;;;;;;7.90;86.09;101214.12;102955;1319;23967;-63
2024/03/22 01:10:12;;;;;;;22.90;17.60;;;;;;;7.89;86.37;101212.56;103044;1302;22602;-64
2024/03/22 01:12:39;;;;;;;21.90;18.20;;;;;;;7.88;86.14;101215.65;102729;1303;25510;-64
2024/03/22 01:15:06;;;;;;;21.70;17.30;;;;;;;7.86;86.20;101221.65;102773;1306;22567;-64
2024/03/22 01:17:32;;;;;;;22.20;18.10;;;;;;;7.86;88.73;101218.73;102966;1307;24373;-64
2024/03/22 01:19:57;;;;;;;24.00;19.20;;;;;;;7.85;86.86;101219.41;102745;1320;25611;-63
2024/03/22 01:22:23;;;;;;;22.60;17.50;;;;;;;7.86;86.47;101215.13;103019;1296;22577;-64
2024/03/22 01:24:48;;;;;;;23.90;18.50;;;;;;;7.85;87.03;101211.86;102967;1304;22828;-63
2024/03/22 01:27:14;;;;;;;29.00;19.00;;;;;;;7.85;86.35;101210.31;102926;1312;24435;-63
2024/03/22 01:29:39;;;;;;;23.50;18.00;;;;;;;7.87;86.29;101209.98;102924;1316;22687;-63
2024/03/22 01:32:06;;;;;;;22.60;18.70;;;;;;;7.88;86.10;101208.27;102953;1319;24774;-64
2024/03/22 01:34:32;;;;;;;24.00;18.30;;;;;;;7.88;87.40;101210.85;103497;1314;25459;-62
2024/03/22 01:36:58;;;;;;;20.70;18.40;;;;;;;7.87;86.97;101214.10;103541;1305;26557;-62
2024/03/22 01:39:23;;;;;;;24.50;17.20;;;;;;;7.86;87.08;101219.24;103512;1319;24250;-64
2024/03/22 01:41:49;;;;;;;23.70;18.80;;;;;;;7.84;86.76;101212.55;103492;1304;22574;-62
2024/03/22 01:44:15;;;;;;;23.30;18.90;;;;;;;7.85;86.69;101215.80;103747;1319;24216;-61
2024/03/22 01:46:41;;;;;;;22.80;17.90;;;;;;;7.85;87.04;101207.23;103551;1316;22544;-62
2024/03/22 01:49:09;;;;;;;22.70;16.70;;;;;;;7.83;87.40;101203.27;103483;1313;25480;-62
2024/03/22 01:51:35;;;;;;;23.00;18.20;;;;;;;7.81;87.18;101203.09;103628;1297;24303;-62
2024/03/22 01:54:03;;;;;;;18.60;14.90;;;;;;;7.78;87.59;101204.30;103448;1319;22568;-62
2024/03/22 01:56:29;;;;;;;21.20;17.20;;;;;;;7.73;87.83;101204.96;103603;1319;22757;-62
2024/03/22 01:58:56;;;;;;;23.60;17.20;;;;;;;7.70;88.04;101203.75;103590;1319;24271;-62
2024/03/22 02:01:21;;;;;;;21.50;16.00;;;;;;;7.66;88.47;101195.48;103469;1297;24260;-62
2024/03/22 02:03:47;;;;;;;22.90;17.40;;;;;;;7.61;88.35;101196.33;103522;1300;22608;-62
2024/03/22 02:06:12;;;;;;;22.90;16.40;;;;;;;7.57;88.28;101193.55;103488;1319;22578;-61
2024/03/22 02:08:40;;;;;;;21.30;16.00;;;;;;;7.55;87.32;101193.54;103553;1319;22587;-61
2024/03/22 02:11:05;;;;;;;22.00;16.90;;;;;;;7.55;87.77;101194.05;103511;1319;22594;-62
2024/03/22 02:13:31;;;;;;;20.70;15.60;;;;;;;7.53;88.23;101197.81;103475;1300;22826;-61
2024/03/22 02:15:57;;;;;;;20.00;14.60;;;;;;;7.51;88.07;101195.23;103487;1312;25522;-61
2024/03/22 02:18:22;;;;;;;19.70;16.20;;;;;;;7.48;89.91;101198.30;103426;1319;22632;-63
2024/03/22 02:20:48;;;;;;;21.20;15.70;;;;;;;7.45;88.88;101196.73;103491;1319;22738;-61
2024/03/22 02:23:13;;;;;;;24.50;16.40;;;;;;;7.43;88.98;101200.66;103485;1300;24266;-62
2024/03/22 02:25:38;;;;;;;26.00;17.50;;;;;;;7.41;87.64;101200.48;103509;1319;26051;-63
2024/03/22 02:28:04;;;;;;;25.90;16.80;;;;;;;7.41;88.10;101195.68;103427;1319;25549;-61
2024/03/22 02:30:30;;;;;;;26.60;17.80;;;;;;;7.40;87.47;101195.16;103478;1313;25507;-62
2024/03/22 02:32:55;;;;;;;24.20;18.10;;;;;;;7.41;87.28;101194.66;103468;1300;24355;-62
2024/03/22 02:35:20;;;;;;;24.10;17.20;;;;;;;7.42;88.07;101194.83;103317;1312;22539;-62
2024/03/22 02:37:45;;;;;;;24.30;16.70;;;;;;;7.40;87.53;101193.28;103407;1320;26579;-62
2024/03/22 02:40:12;;;;;;;21.70;16.00;;;;;;;7.39;89.72;101188.13;103365;1319;25217;-62
2024/03/22 02:42:37;;;;;;;22.60;17.00;;;;;;;7.35;88.85;101184.49;103455;1319;25535;-63
2024/03/22 02:45:03;;;;;;;22.10;17.50;;;;;;;7.35;88.61;101182.77;103005;1316;22567;-63
2024/03/22 02:47:28;;;;;;;25.10;17.70;;;;;;;7.34;88.36;101174.71;102740;1300;24269;-64
2024/03/22 02:49:53;;;;;;;22.60;16.90;;;;;;;7.34;87.47;101175.58;102984;1319;24250;-65
2024/03/22 02:52:19;;;;;;;23.00;16.90;;;;;;;7.35;88.22;101179.35;103165;1319;28188;-63
2024/03/22 02:54:44;;;;;;;22.60;16.40;;;;;;;7.34;88.30;101169.90;102894;1304;22588;-63
2024/03/22 02:57:09;;;;;;;21.30;16.90;;;;;;;7.31;88.82;101174.52;102942;1319;24175;-62
2024/03/22 02:59:35;;;;;;;23.40;17.20;;;;;;;7.32;88.00;101170.41;102961;1313;25405;-63
2024/03/22 03:02:00;;;;;;;23.70;16.90;;;;;;;7.33;87.48;101169.73;103022;1319;22656;-63
2024/03/22 03:04:25;;;;;;;27.80;17.00;;;;;;;7.35;87.35;101173.01;102740;1303;22579;-63
2024/03/22 03:06:51;;;;;;;22.30;16.60;;;;;;;7.34;87.89;101174.04;102941;1319;24239;-64
2024/03/22 03:09:16;;;;;;;25.40;18.50;;;;;;;7.32;89.02;101179.50;103009;1317;24541;-63
2024/03/22 03:11:41;;;;;;;26.00;17.70;;;;;;;7.28;89.31;101179.32;102771;1319;22569;-63
2024/03/22 03:14:07;;;;;;;27.20;17.60;;;;;;;7.27;88.03;101178.46;102942;1316;25308;-64
2024/03/22 03:16:32;;;;;;;26.00;16.20;;;;;;;7.28;87.96;101174.17;102971;1316;22728;-64
2024/03/22 03:18:58;;;;;;;24.00;16.20;;;;;;;7.27;88.25;101177.09;102981;1319;24276;-63
2024/03/22 03:21:23;;;;;;;27.70;18.10;;;;;;;7.24;90.17;101172.80;103069;1319;24322;-64
2024/03/22 03:23:48;;;;;;;24.30;18.20;;;;;;;7.21;90.41;101176.72;102885;1300;22579;-63
2024/03/22 03:26:14;;;;;;;27.10;17.00;;;;;;;7.21;88.45;101179.98;102838;1320;24303;-64
2024/03/22 03:28:39;;;;;;;25.60;17.00;;;;;;;7.21;87.86;101182.89;102812;1321;26388;-64
2024/03/22 03:31:04;;;;;;;27.80;17.40;;;;;;;7.21;88.88;101184.61;102856;1313;22584;-63
2024/03/22 03:33:30;;;;;;;22.20;15.50;;;;;;;7.20;88.65;101177.05;102819;1297;22567;-62
2024/03/22 03:35:56;;;;;;;22.70;15.10;;;;;;;7.17;88.86;101174.80;103076;1319;22571;-63
2024/03/22 03:38:22;;;;;;;22.20;15.30;;;;;;;7.14;89.00;101175.98;102782;1313;22731;-63
2024/03/22 03:40:48;;;;;;;20.70;14.40;;;;;;;7.13;89.07;101177.69;102952;1319;22606;-64
2024/03/22 03:43:13;;;;;;;21.70;14.60;;;;;;;7.09;88.33;101181.61;102953;1319;24427;-63
2024/03/22 03:45:39;;;;;;;23.70;15.00;;;;;;;7.08;88.35;101179.89;102686;1320;22567;-63
2024/03/22 03:48:04;;;;;;;18.30;13.20;;;;;;;7.05;89.37;101181.41;102726;1320;22716;-63
2024/03/22 03:50:29;;;;;;;18.30;13.80;;;;;;;7.02;88.86;101179.50;102834;1320;24934;-64
2024/03/22 03:52:55;;;;;;;19.70;14.20;;;;;;;6.99;88.70;101181.53;103330;1319;22830;-62
2024/03/22 03:55:22;;;;;;;18.30;14.10;;;;;;;6.97;88.44;101181.69;105518;1300;22517;-62
2024/03/22 03:57:52;;;;;;;20.00;14.10;;;;;;;6.96;88.59;101182.36;105576;1319;22514;-61
2024/03/22 04:00:19;;;;;;;21.20;13.60;;;;;;;6.94;89.58;101178.40;105786;1314;22589;-61
2024/03/22 04:02:45;;;;;;;20.40;13.90;;;;;;;6.93;88.73;101180.45;105757;1319;22569;-61
2024/03/22 04:05:10;;;;;;;17.70;13.20;;;;;;;6.93;88.17;101181.83;105684;1300;22774;-62
2024/03/22 04:07:35;;;;;;;18.70;13.10;;;;;;;6.94;88.08;101181.66;105665;1313;22560;-62
2024/03/22 04:10:01;;;;;;;18.30;13.30;;;;;;;6.94;89.05;101187.83;105748;1313;22588;-61
2024/03/22 04:12:26;;;;;;;17.60;13.00;;;;;;;6.92;89.08;101187.48;105876;1318;23420;-61
2024/03/22 04:14:52;;;;;;;18.40;12.00;;;;;;;6.91;88.40;101183.52;105688;1300;22617;-61
2024/03/22 04:17:18;;;;;;;19.50;12.90;;;;;;;6.90;88.68;101177.86;105745;1319;22567;-61
2024/03/22 04:19:43;;;;;;;19.20;12.40;;;;;;;6.91;88.41;101174.78;105694;1316;24359;-61
2024/03/22 04:22:09;;;;;;;20.40;14.20;;;;;;;6.90;88.18;101166.89;105727;1319;24048;-61
2024/03/22 04:24:34;;;;;;;18.40;12.80;;;;;;;6.91;87.89;101165.02;105756;1298;22806;-62
2024/03/22 04:26:59;;;;;;;18.40;12.80;;;;;;;6.92;87.66;101161.77;105697;1319;22549;-61
2024/03/22 04:29:25;;;;;;;20.20;13.50;;;;;;;6.91;88.19;101159.88;105768;1319;22626;-62
2024/03/22 04:31:50;;;;;;;17.30;12.20;;;;;;;6.88;87.96;101160.53;105688;1319;22577;-61
2024/03/22 04:34:17;;;;;;;19.30;13.60;;;;;;;6.88;88.05;101159.50;105780;1298;22827;-61
2024/03/22 04:36:43;;;;;;;18.10;12.20;;;;;;;6.88;87.83;101158.48;105706;1300;22588;-61
2024/03/22 04:39:09;;;;;;;18.40;12.60;;;;;;;6.89;87.82;101156.08;105660;1319;22581;-61
2024/03/22 04:41:35;;;;;;;18.00;12.10;;;;;;;6.88;87.72;101156.59;105504;1319;23855;-62
2024/03/22 04:44:00;;;;;;;20.20;13.10;;;;;;;6.87;87.69;101154.20;105549;1319;22584;-62
2024/03/22 04:46:25;;;;;;;19.40;12.60;;;;;;;6.85;87.99;101149.03;105532;1301;22770;-62
2024/03/22 04:48:51;;;;;;;21.00;13.40;;;;;;;6.83;88.02;101145.76;105526;1312;24277;-61
2024/03/22 04:51:16;;;;;;;17.40;12.20;;;;;;;6.83;87.70;101142.32;105588;1319;22571;-61
2024/03/22 04:53:41;;;;;;;18.40;12.80;;;;;;;6.82;87.55;101145.92;105573;1319;22638;-61
2024/03/22 04:56:07;;;;;;;19.10;13.50;;;;;;;6.85;87.55;101146.63;105627;1300;22570;-61
2024/03/22 04:58:32;;;;;;;21.10;12.70;;;;;;;6.86;87.52;101148.36;105608;1313;22558;-60
2024/03/22 05:00:59;;;;;;;18.50;12.90;;;;;;;6.86;88.35;101145.44;105502;1316;22834;-62
2024/03/22 05:03:24;;;;;;;20.50;13.60;;;;;;;6.82;88.48;101143.00;104591;1317;22715;-64
2024/03/22 05:05:50;;;;;;;19.80;13.50;;;;;;;6.81;88.08;101141.62;102990;1300;25061;-64
2024/03/22 05:08:17;;;;;;;20.10;13.50;;;;;;;6.82;87.75;101140.77;102818;1319;25346;-63
2024/03/22 05:10:42;;;;;;;21.00;14.10;;;;;;;6.83;87.73;101136.50;102931;1320;22570;-64
2024/03/22 05:13:08;;;;;;;20.60;13.90;;;;;;;6.82;87.82;101134.61;102859;1319;22587;-63
2024/03/22 05:15:33;;;;;;;23.30;14.00;;;;;;;6.79;87.68;101128.24;102880;1297;22630;-65
2024/03/22 05:17:59;;;;;;;20.00;13.50;;;;;;;6.78;87.69;101129.25;102778;1315;22571;-63
2024/03/22 05:20:25;;;;;;;22.70;14.20;;;;;;;6.75;88.05;101128.05;103098;1318;23555;-61
2024/03/22 05:22:50;;;;;;;21.00;13.80;;;;;;;6.73;87.54;101126.16;102925;1313;22564;-62
2024/03/22 05:25:16;;;;;;;24.00;14.70;;;;;;;6.73;87.83;101124.63;102888;1316;25578;-63
2024/03/22 05:27:42;;;;;;;19.70;13.40;;;;;;;6.70;87.69;101123.40;102925;1319;22566;-63
2024/03/22 05:30:13;;;;;;;24.10;14.20;;;;;;;6.68;88.37;101124.75;103343;1319;25736;-64
2024/03/22 05:32:38;;;;;;;25.80;14.70;;;;;;;6.68;88.45;101129.90;103066;1319;25360;-63
2024/03/22 05:35:05;;;;;;;22.90;14.40;;;;;;;6.68;88.70;101131.61;102951;1313;22577;-64
2024/03/22 05:37:30;;;;;;;20.40;14.20;;;;;;;6.69;88.61;101125.96;103113;1300;23126;-63
2024/03/22 05:39:56;;;;;;;24.00;15.30;;;;;;;6.70;88.38;101124.42;102819;1313;22569;-64
2024/03/22 05:42:21;;;;;;;22.30;14.00;;;;;;;6.72;88.09;101124.96;102841;1321;22567;-64
2024/03/22 05:44:47;;;;;;;22.70;14.10;;;;;;;6.75;88.21;101123.44;102784;1313;24000;-63
2024/03/22 05:47:13;;;;;;;27.00;15.40;;;;;;;6.76;88.47;101125.66;102918;1297;24365;-65
2024/03/22 05:49:38;;;;;;;23.90;14.70;;;;;;;6.76;88.60;101129.44;102994;1313;26566;-64
2024/03/22 05:52:03;;;;;;;22.30;14.00;;;;;;;6.77;88.57;101130.80;102857;1319;25429;-64
2024/03/22 05:54:29;;;;;;;25.60;14.80;;;;;;;6.81;88.16;101126.36;103020;1313;22651;-64
2024/03/22 05:56:55;;;;;;;22.40;14.60;;;;;;;6.86;87.95;101124.53;102911;1314;25386;-66
2024/03/22 05:59:20;;;;;;;25.40;15.50;;;;;;;6.94;88.14;101124.59;102936;1313;22571;-62
2024/03/22 06:01:46;;;;;;;21.80;14.50;;;;;;;6.96;87.82;101123.41;102968;1314;22560;-63
2024/03/22 06:04:11;;;;;;;27.90;16.00;;;;;;;7.02;87.96;101122.08;102906;1304;25357;-61
2024/03/22 06:06:36;;;;;;;26.00;15.00;;;;;;;7.04;88.59;101118.66;102855;1298;25404;-63
2024/03/22 06:09:09;;;;;;;29.30;16.90;;;;;;;7.05;88.40;101118.33;102872;1313;22654;-64
2024/03/22 06:11:35;;;;;;;28.60;15.70;;;;;;;7.10;88.09;101113.38;102873;1320;22575;-65
2024/03/22 06:14:00;;;;;;;30.30;17.70;;;;;;;7.16;88.00;101111.20;103014;1320;24016;-63
2024/03/22 06:16:26;;;;;;;27.00;16.70;;;;;;;7.20;87.92;101106.24;103066;1297;24554;-62
2024/03/22 06:18:51;;;;;;;28.50;16.30;;;;;;;7.22;87.96;101111.58;103107;1319;24273;-61
2024/03/22 06:21:21;;;;;;;24.90;16.10;;;;;;;7.19;87.97;101110.35;102961;1312;24417;-62
2024/03/22 06:23:50;;;;;;;28.10;18.10;;;;;;;7.17;88.47;101108.45;103040;1319;22544;-62
2024/03/22 06:26:16;;;;;;;29.00;15.60;;;;;;;7.16;88.18;101105.88;103489;1311;22775;-63
2024/03/22 06:28:41;;;;;;;26.20;16.70;;;;;;;7.18;88.08;101104.18;103102;1319;22568;-64
2024/03/22 06:31:06;;;;;;;24.10;14.90;;;;;;;7.21;88.17;101099.73;103113;1319;22910;-64
2024/03/22 06:33:31;;;;;;;30.20;17.40;;;;;;;7.22;88.71;101102.30;103029;1319;25338;-63
2024/03/22 06:35:57;;;;;;;28.70;18.20;;;;;;;7.23;88.43;101098.38;103190;1319;24293;-63
2024/03/22 06:38:22;;;;;;;31.70;18.30;;;;;;;7.29;88.77;101099.41;103183;1300;24348;-62
2024/03/22 06:40:47;;;;;;;26.90;17.10;;;;;;;7.32;88.40;101098.91;103036;1314;24263;-63
2024/03/22 06:43:13;;;;;;;28.20;17.60;;;;;;;7.38;88.23;101096.36;103212;1319;22506;-63
2024/03/22 06:45:38;;;;;;;34.90;18.40;;;;;;;7.44;88.39;101093.14;103215;1316;25461;-62
2024/03/22 06:48:04;;;;;;;31.10;18.90;;;;;;;7.44;88.50;101089.87;103068;1302;22810;-62
2024/03/22 06:50:29;;;;;;;31.90;18.60;;;;;;;7.48;88.45;101083.38;103192;1319;23164;-64
2024/03/22 06:52:54;;;;;;;29.80;18.80;;;;;;;7.59;88.68;101077.94;103226;1319;22945;-62
2024/03/22 06:55:21;;;;;;;32.20;18.50;;;;;;;7.64;88.82;101074.52;103241;1319;22576;-63
2024/03/22 06:57:48;;;;;;;30.80;18.80;;;;;;;7.60;88.50;101070.89;103449;1300;22668;-63
2024/03/22 07:00:14;;;;;;;28.10;18.70;;;;;;;7.64;88.81;101063.88;103200;1319;22585;-63
2024/03/22 07:02:40;;;;;;;28.30;17.80;;;;;;;7.74;88.72;101059.80;103465;1319;25627;-62
2024/03/22 07:05:09;;;;;;;31.60;18.90;;;;;;;7.79;88.59;101055.17;103584;1319;23054;-63
2024/03/22 07:07:35;;;;;;;32.10;19.40;;;;;;;7.85;88.42;101045.54;103752;1297;22564;-62
2024/03/22 07:10:02;;;;;;;30.70;18.20;;;;;;;7.86;88.45;101041.60;103764;1298;24257;-62
2024/03/22 07:12:27;;;;;;;31.40;19.20;;;;;;;7.86;88.33;101039.36;104064;1306;24268;-62
2024/03/22 07:14:53;;;;;;;31.90;20.30;;;;;;;7.94;88.58;101038.69;104075;1314;22525;-63
2024/03/22 07:17:23;;;;;;;35.80;20.70;;;;;;;8.00;88.52;101033.73;104140;1314;22741;-63
2024/03/22 07:19:52;;;;;;;35.60;20.80;;;;;;;8.01;88.37;101033.38;103828;1297;291516;-62
2024/03/22 07:22:18;;;;;;;31.80;21.00;;;;;;;8.00;88.25;101029.60;104149;1313;22561;-60
2024/03/22 07:24:43;;;;;;;34.90;21.50;;;;;;;8.05;88.45;101037.34;103554;1314;22567;-63
2024/03/22 07:27:08;;;;;;;33.30;21.70;;;;;;;8.09;88.11;101041.64;103233;1314;22890;-62
2024/03/22 07:29:34;;;;;;;36.70;21.70;;;;;;;8.10;87.98;101037.52;103239;1296;22573;-63
2024/03/22 07:31:59;;;;;;;33.00;21.50;;;;;;;8.13;87.95;101037.17;103112;1312;26687;-63
2024/03/22 07:34:24;;;;;;;34.60;21.80;;;;;;;8.12;87.46;101036.31;103310;1314;22578;-63
2024/03/22 07:36:50;;;;;;;36.00;22.50;;;;;;;8.14;87.74;101037.69;103256;1306;22594;-63
2024/03/22 07:39:15;;;;;;;31.10;20.40;;;;;;;8.19;87.82;101034.43;103296;1296;22611;-62
2024/03/22 07:41:40;;;;;;;33.60;20.50;;;;;;;8.20;87.19;101030.65;103099;1312;22605;-62
2024/03/22 07:44:06;;;;;;;32.20;19.60;;;;;;;8.23;87.64;101031.17;103287;1314;23113;-62
2024/03/22 07:46:31;;;;;;;30.90;20.00;;;;;;;8.31;87.30;101026.36;103336;1314;24378;-63
2024/03/22 07:48:56;;;;;;;24.80;18.10;;;;;;;8.33;86.86;101021.89;103250;1297;22682;-62
2024/03/22 07:51:22;;;;;;;24.10;17.00;;;;;;;8.36;86.22;101022.92;103281;1298;22567;-63
2024/03/22 07:53:47;;;;;;;25.90;16.90;;;;;;;8.36;85.64;101020.86;103278;1300;25646;-62
2024/03/22 07:56:13;;;;;;;24.70;16.80;;;;;;;8.36;85.63;101023.78;103287;1307;25632;-63
2024/03/22 07:58:39;;;;;;;19.80;15.50;;;;;;;8.38;85.67;101016.06;103216;1291;22685;-63
2024/03/22 08:01:04;;;;;;;21.30;16.40;;;;;;;8.38;85.37;101015.71;103239;1306;22567;-63
2024/03/22 08:03:29;;;;;;;20.90;16.40;;;;;;;8.43;85.39;101014.52;103289;1307;22654;-62
2024/03/22 08:05:55;;;;;;;20.70;14.50;;;;;;;8.44;84.95;101017.42;103188;1314;24023;-63
2024/03/22 08:08:20;;;;;;;21.00;16.70;;;;;;;8.44;85.12;101013.30;103286;1314;22731;-62
2024/03/22 08:10:46;;;;;;;24.30;16.50;;;;;;;8.42;85.04;101012.27;103292;1313;22687;-63
2024/03/22 08:13:11;;;;;;;23.90;17.10;;;;;;;8.46;84.50;101015.19;103217;1310;25650;-62
2024/03/22 08:15:36;;;;;;;21.00;16.70;;;;;;;8.48;84.42;101016.56;103208;1307;25567;-63
2024/03/22 08:18:02;;;;;;;24.30;13.90;;;;;;;8.51;83.69;101012.95;103258;1301;22569;-62
2024/03/22 08:20:28;;;;;;;24.20;18.30;;;;;;;8.52;83.39;101008.48;103304;1296;22835;-63
2024/03/22 08:22:53;;;;;;;22.90;17.10;;;;;;;8.57;83.95;101004.88;103192;1301;25409;-64
2024/03/22 08:25:20;;;;;;;21.80;16.60;;;;;;;8.62;83.48;101005.72;103167;1312;26189;-63
2024/03/22 08:27:46;;;;;;;22.90;17.60;;;;;;;8.69;83.58;100998.49;103050;1301;24376;-62
2024/03/22 08:30:12;;;;;;;23.90;17.20;;;;;;;8.77;83.94;100995.55;103271;1297;22683;-62
2024/03/22 08:32:38;;;;;;;23.60;16.00;;;;;;;8.86;83.91;100986.57;103339;1299;25649;-62
2024/03/22 08:35:04;;;;;;;25.40;17.20;;;;;;;8.96;83.38;100982.92;103461;1306;23148;-61
2024/03/22 08:37:31;;;;;;;22.70;17.20;;;;;;;9.05;83.83;100985.98;103947;1312;22544;-61
2024/03/22 08:39:56;;;;;;;22.70;17.70;;;;;;;9.13;82.67;100980.11;103764;1294;24136;-62
2024/03/22 08:42:22;;;;;;;22.70;17.40;;;;;;;9.19;83.35;100977.84;103421;1314;26687;-61
2024/03/22 08:44:47;;;;;;;21.60;16.60;;;;;;;9.29;82.92;100978.30;103428;1314;22578;-61
2024/03/22 08:47:13;;;;;;;26.00;16.50;;;;;;;9.39;82.78;100977.89;103449;1314;26593;-61
2024/03/22 08:49:39;;;;;;;22.90;17.70;;;;;;;9.43;82.47;100977.70;103570;1291;23701;-62
2024/03/22 08:52:04;;;;;;;19.90;16.10;;;;;;;9.46;82.46;100974.23;103374;1300;22522;-62
2024/03/22 08:54:30;;;;;;;21.60;16.40;;;;;;;9.48;82.39;100972.16;103274;1309;22577;-62
2024/03/22 08:56:55;;;;;;;25.00;17.80;;;;;;;9.57;82.27;100962.64;103300;1307;24284;-61
2024/03/22 08:59:20;;;;;;;19.30;15.50;;;;;;;9.73;82.23;100956.52;103325;1313;22530;-61
2024/03/22 09:01:48;;;;;;;23.20;18.60;;;;;;;10.06;81.52;100950.72;103394;1297;22761;-59
2024/03/22 09:04:14;;;;;;;25.50;16.50;;;;;;;10.42;81.46;100948.52;103534;1307;22595;-58
2024/03/22 09:06:39;;;;;;;22.40;18.50;;;;;;;10.52;78.75;100943.73;103399;1300;22571;-61
2024/03/22 09:09:05;;;;;;;19.60;16.90;;;;;;;10.74;80.50;100937.98;103331;1303;22607;-62
2024/03/22 09:11:31;;;;;;;20.70;17.30;;;;;;;10.88;78.49;100932.82;103278;1297;22564;-62
2024/03/22 09:13:57;;;;;;;21.40;15.80;;;;;;;10.75;78.76;100935.05;103283;1315;22833;-62
2024/03/22 09:16:23;;;;;;;21.30;16.40;;;;;;;10.74;79.27;100929.38;103306;1309;22594;-62
2024/03/22 09:18:49;;;;;;;22.40;17.20;;;;;;;10.69;77.82;100926.67;104069;1314;22582;-62
2024/03/22 09:21:14;;;;;;;23.10;16.90;;;;;;;10.75;77.41;100920.91;103357;1294;22565;-60
2024/03/22 09:23:40;;;;;;;19.20;16.40;;;;;;;11.11;78.23;100918.52;103493;1307;24752;-60
2024/03/22 09:26:05;;;;;;;19.00;15.60;;;;;;;11.54;77.13;100917.55;103645;1314;22681;-61
2024/03/22 09:28:31;;;;;;;21.00;16.40;;;;;;;11.78;76.69;100920.48;103598;1307;25276;-62
2024/03/22 09:30:56;;;;;;;20.70;16.30;;;;;;;11.89;74.39;100915.12;103485;1297;22763;-62
2024/03/22 09:33:22;;;;;;;19.10;15.30;;;;;;;12.05;73.01;100905.67;103637;1306;22540;-62
2024/03/22 09:35:47;;;;;;;19.70;15.10;;;;;;;12.14;73.92;100909.48;103586;1297;22630;-62
2024/03/22 09:38:12;;;;;;;17.40;14.90;;;;;;;12.03;73.34;100908.46;103486;1307;25452;-61
2024/03/22 09:40:39;;;;;;;19.40;15.50;;;;;;;11.96;72.89;100896.52;103528;1291;22578;-62
2024/03/22 09:43:07;;;;;;;16.40;14.20;;;;;;;11.92;72.58;100895.55;103666;1306;22570;-61
2024/03/22 09:45:32;;;;;;;16.30;14.60;;;;;;;11.85;72.30;100892.21;107053;1314;22377;-64
2024/03/22 09:47:58;;;;;;;21.50;16.70;;;;;;;11.79;72.47;100896.29;104785;1307;24256;-62
2024/03/22 09:50:24;;;;;;;18.10;16.00;;;;;;;11.76;73.74;100894.26;103269;1314;22779;-62
2024/03/22 09:52:52;;;;;;;20.20;16.50;;;;;;;11.62;72.93;100893.60;103066;1308;22560;-64
2024/03/22 09:55:22;;;;;;;20.90;16.80;;;;;;;11.49;73.49;100887.59;103189;1313;25279;-63
2024/03/22 09:57:50;;;;;;;19.60;14.90;;;;;;;11.41;73.60;100884.97;103234;1314;24120;-63
2024/03/22 10:00:18;;;;;;;18.70;14.60;;;;;;;11.34;73.17;100879.22;103440;1311;22608;-63
2024/03/22 10:02:45;;;;;;;21.90;16.60;;;;;;;11.41;74.29;100874.98;103221;1297;22788;-62
2024/03/22 10:05:10;;;;;;;18.70;15.70;;;;;;;11.41;73.83;100870.30;103263;1307;24253;-64
2024/03/22 10:07:36;;;;;;;22.20;16.10;;;;;;;11.37;73.81;100861.05;103203;1313;23780;-62
2024/03/22 10:10:03;;;;;;;20.40;15.20;;;;;;;11.39;74.91;100849.80;103300;1313;22580;-63
2024/03/22 10:12:28;;;;;;;19.60;15.50;;;;;;;11.42;74.12;100855.60;103349;1297;22568;-63
2024/03/22 10:14:54;;;;;;;20.10;16.50;;;;;;;11.46;74.20;100852.75;103288;1313;22630;-64
2024/03/22 10:17:20;;;;;;;21.40;16.20;;;;;;;11.50;73.71;100855.29;103254;1314;25558;-63
2024/03/22 10:19:45;;;;;;;23.50;15.60;;;;;;;11.48;72.97;100845.64;103610;1314;22942;-63
2024/03/22 10:22:11;;;;;;;23.70;16.40;;;;;;;11.43;72.74;100841.09;103227;1307;22566;-64
2024/03/22 10:24:36;;;;;;;21.30;16.40;;;;;;;11.36;72.95;100845.86;103262;1314;25406;-64
2024/03/22 10:27:01;;;;;;;18.90;16.30;;;;;;;11.26;73.00;100838.25;103280;1313;24245;-63
2024/03/22 10:29:27;;;;;;;20.70;16.40;;;;;;;11.11;72.93;100833.13;103263;1306;27237;-65
2024/03/22 10:31:55;;;;;;;18.60;15.60;;;;;;;10.94;73.25;100843.38;103252;1293;23142;-63
2024/03/22 10:34:24;;;;;;;17.30;14.80;;;;;;;10.86;73.56;100834.20;103387;1314;25558;-64
2024/03/22 10:36:50;;;;;;;20.40;15.60;;;;;;;10.85;73.96;100833.01;103211;1300;24272;-63
2024/03/22 10:39:19;;;;;;;19.50;15.10;;;;;;;10.82;73.76;100830.63;103585;1314;22694;-63
2024/03/22 10:41:48;;;;;;;19.50;14.50;;;;;;;10.76;73.66;100825.03;103253;1291;22575;-64
2024/03/22 10:44:17;;;;;;;19.60;14.90;;;;;;;10.71;73.78;100826.47;103253;1314;24312;-64
2024/03/22 10:46:47;;;;;;;21.60;13.70;;;;;;;10.66;74.04;100817.39;103294;1314;23977;-63
2024/03/22 10:49:20;;;;;;;22.40;16.60;;;;;;;10.68;74.27;100816.84;106280;1301;24289;-62
2024/03/22 10:51:51;;;;;;;19.60;15.60;;;;;;;10.68;74.73;100812.02;106317;1314;22627;-62
2024/03/22 10:54:20;;;;;;;21.10;15.10;;;;;;;10.59;75.25;100815.06;105480;1307;22979;-61
2024/03/22 10:56:47;;;;;;;21.80;16.40;;;;;;;10.53;75.85;100808.08;103627;1291;22624;-62
2024/03/22 10:59:22;;;;;;;20.70;14.70;;;;;;;10.41;76.85;100806.35;103863;1314;24297;-63
2024/03/22 11:01:49;;;;;;;19.80;15.90;;;;;;;10.34;76.79;100806.45;103555;1314;23056;-61